메인 페이지
METAR-TAF:

METAR-TAF

공항 :

싼야 펑황 국제공항

싼야, 중국

위도: 18-18N, 경도: 109-24E, 고도: 27m

현재 날씨관측

예보는 52분 전, 17:00시(UTC)에 발표되었습니다.
여러 방향의 바람 2kt
온도 29°C
습도 89%
기압 1010 hPa
시정 10km 이상
1500m 미만 상공 구름 및 적란운 없음

METAR: ZJSY 311700Z VRB01MPS CAVOK 29/27 Q1010 NOSIG

시각: 01:52 (17:52 UTC)

예보

예보는 2 시간 49분 전, 15:03시(UTC)에 발표되었습니다.
예보 대상 시간: 31일 18시부터 01일 18시까지 (UTC)
남남동6kt
시정 10km 이상
고도 2000ft 상공 구름 조금
일시적
31일 22시부터 01일 04시까지 (UTC)
고도 1800ft 상공 구름 보통
고도 2500ft 상공 구름 조금, 적란운.

TAF: ZJSY 311503Z 3118/0118 15003MPS 9999 FEW020 TX33/0106Z TN28/3121Z TEMPO 3122/0104 SCT018 FEW025CB

4,000개 이상의 공항 관측 자료 및 예보 (METAR 및 TAF 보고).

지도상에서 검색 가능한 기상관측소가 노란 점과 빨간 점으로 표시되어 있습니다.

기상관측소 명을 보려면 표시 위로 마우스를 이동하세요.

날씨 관측과 예보를 보려면 클릭하세요.

지도 변경 : 확대하려면 엑스 표시가 있는 녹색 버튼, 축소하려면 빼기 표시가 있는 녹색 버튼, 다음 페이지의 지도를 보려면 녹색 화살표를 클릭하세요.


METAR-TAF: